Time;durP1;ratioP1;P1;durP2;ratioP2;P2;SDS_P1;SDS_P2;PMS_P1;PMS_P2;Temp;Humidity;BMP_temperature;BMP_pressure;BME280_temperature;BME280_humidity;BME280_pressure;Samples;Min_cycle;Max_cycle;Signal;HPM_P1;HPM_P2
2022/02/20 00:01:45;;;;;;;;;;;;;;;;;;5081773;28;20352;-90
2022/02/20 00:04:11;;;;;;;;;;;;;;;;;;5080569;28;19995;-90
2022/02/20 00:06:37;;;;;;;;;;;;;;;;;;5080924;28;19927;-91
2022/02/20 00:09:03;;;;;;;;;;;;;;;;;;5080297;28;19920;-92
2022/02/20 00:11:30;;;;;;;;;;;;;;;;;;5080893;28;19924;-92
2022/02/20 00:13:56;;;;;;;;;;;;;;;;;;5066771;28;19980;-93
2022/02/20 00:16:22;;;;;;;;;;;;;;;;;;5061796;28;19924;-91
2022/02/20 00:18:49;;;;;;;;;;;;;;;;;;5081438;28;20005;-91
2022/02/20 00:21:15;;;;;;;;;;;;;;;;;;5084882;28;19920;-91
2022/02/20 00:23:41;;;;;;;;;;;;;;;;;;5084524;28;19942;-90
2022/02/20 00:26:07;;;;;;;;;;;;;;;;;;5084073;28;19921;-90
2022/02/20 00:28:33;;;;;;;;;;;;;;;;;;5073137;28;19920;-91
2022/02/20 00:31:00;;;;;;;;;;;;;;;;;;5063837;28;19951;-92
2022/02/20 00:33:26;;;;;;;;;;;;;;;;;;5076812;28;19924;-91
2022/02/20 00:35:52;;;;;;;;;;;;;;;;;;5084615;28;19920;-92
2022/02/20 00:38:19;;;;;;;;;;;;;;;;;;5083976;28;19920;-91
2022/02/20 00:40:46;;;;;;;;;;;;;;;;;;5080561;28;19924;-91
2022/02/20 00:43:12;;;;;;;;;;;;;;;;;;5082908;28;19920;-91
2022/02/20 00:45:38;;;;;;;;;;;;;;;;;;5082635;28;20759;-93
2022/02/20 00:48:05;;;;;;;;;;;;;;;;;;5086916;28;20768;-90
2022/02/20 00:50:31;;;;;;;;;;;;;;;;;;5084140;28;20630;-93
2022/02/20 00:52:57;;;;;;;;;;;;;;;;;;5083931;28;20821;-91
2022/02/20 00:55:25;;;;;;;;;;;;;;;;;;5083871;28;19928;-91
2022/02/20 00:57:51;;;;;;;;;;;;;;;;;;5082859;28;19998;-92
2022/02/20 01:00:17;;;;;;;;;;;;;;;;;;5083658;28;19920;-90
2022/02/20 01:02:43;;;;;;;;;;;;;;;;;;5083602;28;19943;-90
2022/02/20 01:05:10;;;;;;;;;;;;;;;;;;5083552;28;20414;-91
2022/02/20 01:07:36;;;;;;;;;;;;;;;;;;5074021;28;20340;-91
2022/02/20 01:10:02;;;;;;;;;;;;;;;;;;5082672;28;19947;-91
2022/02/20 01:12:28;;;;;;;;;;;;;;;;;;5083497;28;19924;-93
2022/02/20 01:14:55;;;;;;;;;;;;;;;;;;5083441;28;19924;-91
2022/02/20 01:17:21;;;;;;;;;;;;;;;;;;5084198;28;19936;-91
2022/02/20 01:19:48;;;;;;;;;;;;;;;;;;5081976;28;19983;-91
2022/02/20 01:22:14;;;;;;;;;;;;;;;;;;5081789;28;19932;-90
2022/02/20 01:24:40;;;;;;;;;;;;;;;;;;5082589;28;19932;-92
2022/02/20 01:27:06;;;;;;;;;;;;;;;;;;5083180;28;19924;-92
2022/02/20 01:29:33;;;;;;;;;;;;;;;;;;5083067;28;20396;-95
2022/02/20 01:31:59;;;;;;;;;;;;;;;;;;5073731;28;20575;-89
2022/02/20 01:34:25;;;;;;;;;;;;;;;;;;5058301;28;20286;-91
2022/02/20 01:36:52;;;;;;;;;;;;;;;;;;5063463;28;19920;-91
2022/02/20 01:39:18;;;;;;;;;;;;;;;;;;5062294;28;19920;-92
2022/02/20 01:41:44;;;;;;;;;;;;;;;;;;5062286;28;19948;-92
2022/02/20 01:44:10;;;;;;;;;;;;;;;;;;5063331;28;19925;-91
2022/02/20 01:46:36;;;;;;;;;;;;;;;;;;5062631;28;19920;-91
2022/02/20 01:49:03;;;;;;;;;;;;;;;;;;5058967;28;19931;-91
2022/02/20 01:51:29;;;;;;;;;;;;;;;;;;5063390;28;19925;-91
2022/02/20 01:53:55;;;;;;;;;;;;;;;;;;5063565;28;19924;-92
2022/02/20 01:56:21;;;;;;;;;;;;;;;;;;5063741;28;19947;-91
2022/02/20 01:58:48;;;;;;;;;;;;;;;;;;5062527;28;19921;-91
2022/02/20 02:01:14;;;;;;;;;;;;;;;;;;5061310;28;19921;-90
2022/02/20 02:03:40;;;;;;;;;;;;;;;;;;5057988;28;19990;-89
2022/02/20 02:06:06;;;;;;;;;;;;;;;;;;5063001;28;19951;-92
2022/02/20 02:08:35;;;;;;;;;;;;;;;;;;5062929;28;19925;-92
2022/02/20 02:11:01;;;;;;;;;;;;;;;;;;5062517;28;19931;-91
2022/02/20 02:13:27;;;;;;;;;;;;;;;;;;5062271;28;19920;-91
2022/02/20 02:15:53;;;;;;;;;;;;;;;;;;5062769;28;19920;-92
2022/02/20 02:18:19;;;;;;;;;;;;;;;;;;5059536;28;19978;-92
2022/02/20 02:20:46;;;;;;;;;;;;;;;;;;5061644;28;19974;-91
2022/02/20 02:23:13;;;;;;;;;;;;;;;;;;5060873;28;19924;-92
2022/02/20 02:25:39;;;;;;;;;;;;;;;;;;5062188;28;19984;-91
2022/02/20 02:28:05;;;;;;;;;;;;;;;;;;5062574;28;19920;-92
2022/02/20 02:30:31;;;;;;;;;;;;;;;;;;5081975;28;19920;-91
2022/02/20 02:32:58;;;;;;;;;;;;;;;;;;5082491;28;19924;-92
2022/02/20 02:35:24;;;;;;;;;;;;;;;;;;5081456;28;19946;-92
2022/02/20 02:37:52;;;;;;;;;;;;;;;;;;5082326;28;19920;-92
2022/02/20 02:40:18;;;;;;;;;;;;;;;;;;5062323;28;19987;-92
2022/02/20 02:42:44;;;;;;;;;;;;;;;;;;5060814;28;19920;-92
2022/02/20 02:45:10;;;;;;;;;;;;;;;;;;5060778;28;19943;-91
2022/02/20 02:47:37;;;;;;;;;;;;;;;;;;5061247;28;19925;-93
2022/02/20 02:50:03;;;;;;;;;;;;;;;;;;5076654;28;19928;-91
2022/02/20 02:52:29;;;;;;;;;;;;;;;;;;5082287;28;19946;-92
2022/02/20 02:54:55;;;;;;;;;;;;;;;;;;5068036;28;19925;-92
2022/02/20 02:57:21;;;;;;;;;;;;;;;;;;5062236;28;19929;-92
2022/02/20 02:59:48;;;;;;;;;;;;;;;;;;5061574;28;19920;-91
2022/02/20 03:02:14;;;;;;;;;;;;;;;;;;5064019;28;19929;-92
2022/02/20 03:04:40;;;;;;;;;;;;;;;;;;5090183;28;19943;-92
2022/02/20 03:07:07;;;;;;;;;;;;;;;;;;5081289;28;19924;-92
2022/02/20 03:09:35;;;;;;;;;;;;;;;;;;5070910;28;19939;-92
2022/02/20 03:12:02;;;;;;;;;;;;;;;;;;5061963;28;20003;-93
2022/02/20 03:14:28;;;;;;;;;;;;;;;;;;5061528;28;20000;-92
2022/02/20 03:16:54;;;;;;;;;;;;;;;;;;5061150;28;19925;-91
2022/02/20 03:19:21;;;;;;;;;;;;;;;;;;5068490;28;19925;-91
2022/02/20 03:21:47;;;;;;;;;;;;;;;;;;5080870;28;19981;-91
2022/02/20 03:24:13;;;;;;;;;;;;;;;;;;5080793;28;19925;-91
2022/02/20 03:26:39;;;;;;;;;;;;;;;;;;5081749;28;19924;-91
2022/02/20 03:29:05;;;;;;;;;;;;;;;;;;5080868;28;19981;-91
2022/02/20 03:31:33;;;;;;;;;;;;;;;;;;5080414;28;19935;-92
2022/02/20 03:33:59;;;;;;;;;;;;;;;;;;5076871;28;19920;-92
2022/02/20 03:36:25;;;;;;;;;;;;;;;;;;5061084;28;19921;-92
2022/02/20 03:38:51;;;;;;;;;;;;;;;;;;5061542;28;19925;-93
2022/02/20 03:41:17;;;;;;;;;;;;;;;;;;5062112;28;19925;-92
2022/02/20 03:43:44;;;;;;;;;;;;;;;;;;5079970;28;19924;-93
2022/02/20 03:46:10;;;;;;;;;;;;;;;;;;5060359;28;19947;-92
2022/02/20 03:48:36;;;;;;;;;;;;;;;;;;5060477;28;19920;-92
2022/02/20 03:51:05;;;;;;;;;;;;;;;;;;5081207;28;19920;-91
2022/02/20 03:53:31;;;;;;;;;;;;;;;;;;5084604;28;19920;-91
2022/02/20 03:55:57;;;;;;;;;;;;;;;;;;5064380;28;19920;-92
2022/02/20 03:58:24;;;;;;;;;;;;;;;;;;5067091;28;19920;-92
2022/02/20 04:00:50;;;;;;;;;;;;;;;;;;5067669;28;19946;-92
2022/02/20 04:03:16;;;;;;;;;;;;;;;;;;5064867;28;19955;-91
2022/02/20 04:05:42;;;;;;;;;;;;;;;;;;5081199;28;20020;-92
2022/02/20 04:08:09;;;;;;;;;;;;;;;;;;5084408;28;19937;-92
2022/02/20 04:10:35;;;;;;;;;;;;;;;;;;5084101;28;19967;-93
2022/02/20 04:13:01;;;;;;;;;;;;;;;;;;5084876;28;20371;-93
2022/02/20 04:15:27;;;;;;;;;;;;;;;;;;5084328;28;20485;-92
2022/02/20 04:17:54;;;;;;;;;;;;;;;;;;5084912;28;20372;-92
2022/02/20 04:20:20;;;;;;;;;;;;;;;;;;5084036;28;20489;-92
2022/02/20 04:22:46;;;;;;;;;;;;;;;;;;5084705;28;20467;-91
2022/02/20 04:25:12;;;;;;;;;;;;;;;;;;5071705;28;19920;-92
2022/02/20 04:27:39;;;;;;;;;;;;;;;;;;5062875;28;19951;-92
2022/02/20 04:30:05;;;;;;;;;;;;;;;;;;5064058;28;19921;-93
2022/02/20 04:32:32;;;;;;;;;;;;;;;;;;5078576;28;19927;-92
2022/02/20 04:34:58;;;;;;;;;;;;;;;;;;5076132;28;19924;-92
2022/02/20 04:37:24;;;;;;;;;;;;;;;;;;5064557;28;19921;-93
2022/02/20 04:39:50;;;;;;;;;;;;;;;;;;5062590;28;19947;-92
2022/02/20 04:42:17;;;;;;;;;;;;;;;;;;5061458;28;20108;-92
2022/02/20 04:44:43;;;;;;;;;;;;;;;;;;5063728;28;20014;-91
2022/02/20 04:47:09;;;;;;;;;;;;;;;;;;5064030;28;19925;-91
2022/02/20 04:49:35;;;;;;;;;;;;;;;;;;5072388;28;20089;-92
2022/02/20 04:52:03;;;;;;;;;;;;;;;;;;5063307;28;20350;-92
2022/02/20 04:54:29;;;;;;;;;;;;;;;;;;5064776;28;19921;-93
2022/02/20 04:56:55;;;;;;;;;;;;;;;;;;5064582;28;19947;-92
2022/02/20 04:59:22;;;;;;;;;;;;;;;;;;5064162;28;19924;-92
2022/02/20 05:01:48;;;;;;;;;;;;;;;;;;5064366;28;19947;-92
2022/02/20 05:04:14;;;;;;;;;;;;;;;;;;5064536;28;19932;-92
2022/02/20 05:06:40;;;;;;;;;;;;;;;;;;5083073;28;19920;-92
2022/02/20 05:09:07;;;;;;;;;;;;;;;;;;5084073;28;19920;-92
2022/02/20 05:11:33;;;;;;;;;;;;;;;;;;5083812;28;19924;-92
2022/02/20 05:13:59;;;;;;;;;;;;;;;;;;5084231;28;20018;-91
2022/02/20 05:16:25;;;;;;;;;;;;;;;;;;5083859;28;19954;-93
2022/02/20 05:18:52;;;;;;;;;;;;;;;;;;5083918;28;19924;-93
2022/02/20 05:21:18;;;;;;;;;;;;;;;;;;5082983;28;19995;-93
2022/02/20 05:23:44;;;;;;;;;;;;;;;;;;5084186;28;19946;-93
2022/02/20 05:26:11;;;;;;;;;;;;;;;;;;5067736;28;19921;-92
2022/02/20 05:28:37;;;;;;;;;;;;;;;;;;5063643;28;20391;-92
2022/02/20 05:31:04;;;;;;;;;;;;;;;;;;5063325;28;19921;-92
2022/02/20 05:33:30;;;;;;;;;;;;;;;;;;5062982;28;19921;-91
2022/02/20 05:35:56;;;;;;;;;;;;;;;;;;5075389;28;19920;-92
2022/02/20 05:38:22;;;;;;;;;;;;;;;;;;5082887;28;19954;-92
2022/02/20 05:40:49;;;;;;;;;;;;;;;;;;5069754;28;19925;-91
2022/02/20 05:43:15;;;;;;;;;;;;;;;;;;5062211;28;19925;-91
2022/02/20 05:45:41;;;;;;;;;;;;;;;;;;5072476;28;19924;-90
2022/02/20 05:48:07;;;;;;;;;;;;;;;;;;5081624;28;19920;-90
2022/02/20 05:50:33;;;;;;;;;;;;;;;;;;5081388;28;19924;-90
2022/02/20 05:53:00;;;;;;;;;;;;;;;;;;5083685;28;19942;-91
2022/02/20 05:55:26;;;;;;;;;;;;;;;;;;5072163;28;19920;-90
2022/02/20 05:57:52;;;;;;;;;;;;;;;;;;5060840;28;19943;-91
2022/02/20 06:00:18;;;;;;;;;;;;;;;;;;5063961;28;19924;-90
2022/02/20 06:02:45;;;;;;;;;;;;;;;;;;5063421;28;19946;-91
2022/02/20 06:05:11;;;;;;;;;;;;;;;;;;5067107;28;19924;-91
2022/02/20 06:07:38;;;;;;;;;;;;;;;;;;5081132;28;19921;-91
2022/02/20 06:10:04;;;;;;;;;;;;;;;;;;5082469;28;19925;-91
2022/02/20 06:12:30;;;;;;;;;;;;;;;;;;5083058;28;19920;-91
2022/02/20 06:14:56;;;;;;;;;;;;;;;;;;5081149;28;19920;-92
2022/02/20 06:17:22;;;;;;;;;;;;;;;;;;5080563;28;20013;-92
2022/02/20 06:19:49;;;;;;;;;;;;;;;;;;5080458;28;19924;-91
2022/02/20 06:22:15;;;;;;;;;;;;;;;;;;5080533;28;19986;-92
2022/02/20 06:24:41;;;;;;;;;;;;;;;;;;5080962;28;19924;-91
2022/02/20 06:27:07;;;;;;;;;;;;;;;;;;5061474;28;19929;-92
2022/02/20 06:29:34;;;;;;;;;;;;;;;;;;5078177;28;19932;-91
2022/02/20 06:32:00;;;;;;;;;;;;;;;;;;5061233;28;19925;-92
2022/02/20 06:34:26;;;;;;;;;;;;;;;;;;5059010;28;19920;-92
2022/02/20 06:36:53;;;;;;;;;;;;;;;;;;5056209;28;19924;-91
2022/02/20 06:39:20;;;;;;;;;;;;;;;;;;5060914;28;19920;-91
2022/02/20 06:41:46;;;;;;;;;;;;;;;;;;5059508;28;19986;-91
2022/02/20 06:44:12;;;;;;;;;;;;;;;;;;5060712;28;19921;-92
2022/02/20 06:46:38;;;;;;;;;;;;;;;;;;5071591;28;19924;-91
2022/02/20 06:49:07;;;;;;;;;;;;;;;;;;5062510;28;19975;-90
2022/02/20 06:51:33;;;;;;;;;;;;;;;;;;5056318;28;19924;-91
2022/02/20 06:53:59;;;;;;;;;;;;;;;;;;5060755;28;19943;-91
2022/02/20 06:56:25;;;;;;;;;;;;;;;;;;5060628;28;19920;-91
2022/02/20 06:58:52;;;;;;;;;;;;;;;;;;5061452;28;19955;-91
2022/02/20 07:01:18;;;;;;;;;;;;;;;;;;5060232;28;19924;-91
2022/02/20 07:03:45;;;;;;;;;;;;;;;;;;5058407;28;19924;-91
2022/02/20 07:06:11;;;;;;;;;;;;;;;;;;5064554;28;19931;-92
2022/02/20 07:08:37;;;;;;;;;;;;;;;;;;5062724;28;19924;-91
2022/02/20 07:11:04;;;;;;;;;;;;;;;;;;5061528;28;19943;-91
2022/02/20 07:13:30;;;;;;;;;;;;;;;;;;5061358;28;19920;-92
2022/02/20 07:15:56;;;;;;;;;;;;;;;;;;5058370;28;20008;-92
2022/02/20 07:18:22;;;;;;;;;;;;;;;;;;5067729;28;19950;-95
2022/02/20 07:20:49;;;;;;;;;;;;;;;;;;5075175;28;19920;-94
2022/02/20 07:23:15;;;;;;;;;;;;;;;;;;5061474;28;19921;-94
2022/02/20 07:25:41;;;;;;;;;;;;;;;;;;5060181;28;20044;-93
2022/02/20 07:28:07;;;;;;;;;;;;;;;;;;5050149;28;19979;-93
2022/02/20 07:30:33;;;;;;;;;;;;;;;;;;5043427;28;20016;-93
2022/02/20 07:33:04;;;;;;;;;;;;;;;;;;5073164;28;19985;-94
2022/02/20 07:35:30;;;;;;;;;;;;;;;;;;5043113;28;20838;-93
2022/02/20 07:37:56;;;;;;;;;;;;;;;;;;5063819;28;19993;-94
2022/02/20 07:40:22;;;;;;;;;;;;;;;;;;5060648;28;20058;-95
2022/02/20 07:42:49;;;;;;;;;;;;;;;;;;5057962;28;20010;-93
2022/02/20 07:45:15;;;;;;;;;;;;;;;;;;5059868;28;19925;-92
2022/02/20 07:47:41;;;;;;;;;;;;;;;;;;5065821;28;19926;-93
2022/02/20 07:50:07;;;;;;;;;;;;;;;;;;5080981;28;19924;-93
2022/02/20 07:52:34;;;;;;;;;;;;;;;;;;5060189;28;19928;-93
2022/02/20 07:55:00;;;;;;;;;;;;;;;;;;5055575;28;19921;-94
2022/02/20 07:57:26;;;;;;;;;;;;;;;;;;5057238;28;19932;-93
2022/02/20 07:59:53;;;;;;;;;;;;;;;;;;5060170;28;20247;-94
2022/02/20 08:02:19;;;;;;;;;;;;;;;;;;5064101;28;20034;-94
2022/02/20 08:04:45;;;;;;;;;;;;;;;;;;5077567;28;19928;-93
2022/02/20 08:07:11;;;;;;;;;;;;;;;;;;5055651;28;19925;-93
2022/02/20 08:09:38;;;;;;;;;;;;;;;;;;5056659;28;19929;-94
2022/02/20 08:12:04;;;;;;;;;;;;;;;;;;5056929;28;19950;-93
2022/02/20 08:14:30;;;;;;;;;;;;;;;;;;5040384;28;19925;-93
2022/02/20 08:16:57;;;;;;;;;;;;;;;;;;5051636;28;19925;-93
2022/02/20 08:19:24;;;;;;;;;;;;;;;;;;5073934;28;19940;-93
2022/02/20 08:21:50;;;;;;;;;;;;;;;;;;5066807;28;19924;-93
2022/02/20 08:24:16;;;;;;;;;;;;;;;;;;5042887;28;19924;-93
2022/02/20 08:26:43;;;;;;;;;;;;;;;;;;5059126;28;19935;-92
2022/02/20 08:29:09;;;;;;;;;;;;;;;;;;5068109;28;19931;-93
2022/02/20 08:31:35;;;;;;;;;;;;;;;;;;5079649;28;19928;-93
2022/02/20 08:34:01;;;;;;;;;;;;;;;;;;5061920;28;20003;-92
2022/02/20 08:36:28;;;;;;;;;;;;;;;;;;5065892;28;19920;-92
2022/02/20 08:38:55;;;;;;;;;;;;;;;;;;5079260;28;19994;-92
2022/02/20 08:41:21;;;;;;;;;;;;;;;;;;5074725;28;19924;-92
2022/02/20 08:43:47;;;;;;;;;;;;;;;;;;5062956;28;19928;-95
2022/02/20 08:46:13;;;;;;;;;;;;;;;;;;5070312;28;19981;-96
2022/02/20 08:48:40;;;;;;;;;;;;;;;;;;5070171;28;19932;-95
2022/02/20 08:51:09;;;;;;;;;;;;;;;;;;5069082;28;19921;-96
2022/02/20 08:53:37;;;;;;;;;;;;;;;;;;5080970;28;19935;-93
2022/02/20 08:56:04;;;;;;;;;;;;;;;;;;5079334;28;19924;-92
2022/02/20 08:58:30;;;;;;;;;;;;;;;;;;5071010;28;19947;-92
2022/02/20 09:00:56;;;;;;;;;;;;;;;;;;5070646;28;19947;-93
2022/02/20 09:03:23;;;;;;;;;;;;;;;;;;5063731;28;19931;-92
2022/02/20 09:05:49;;;;;;;;;;;;;;;;;;5071902;28;19928;-92
2022/02/20 09:08:15;;;;;;;;;;;;;;;;;;5063201;28;19947;-93
2022/02/20 09:10:42;;;;;;;;;;;;;;;;;;5060767;28;19987;-92
2022/02/20 09:13:08;;;;;;;;;;;;;;;;;;5081276;28;19925;-94
2022/02/20 09:15:34;;;;;;;;;;;;;;;;;;5077004;28;19928;-93
2022/02/20 09:18:01;;;;;;;;;;;;;;;;;;5070433;28;19998;-94
2022/02/20 09:20:27;;;;;;;;;;;;;;;;;;5060825;28;19925;-93
2022/02/20 09:22:54;;;;;;;;;;;;;;;;;;5061796;28;19971;-95
2022/02/20 09:25:20;;;;;;;;;;;;;;;;;;5061953;28;19939;-93
2022/02/20 09:27:46;;;;;;;;;;;;;;;;;;5060786;28;19925;-92
2022/02/20 09:30:12;;;;;;;;;;;;;;;;;;5060517;28;19947;-93
2022/02/20 09:32:39;;;;;;;;;;;;;;;;;;5058578;28;19936;-93
2022/02/20 09:35:05;;;;;;;;;;;;;;;;;;5060928;28;19921;-92
2022/02/20 09:37:31;;;;;;;;;;;;;;;;;;5060808;28;19921;-93
2022/02/20 09:39:57;;;;;;;;;;;;;;;;;;5061986;28;19943;-94
2022/02/20 09:42:24;;;;;;;;;;;;;;;;;;5062165;28;19924;-92
2022/02/20 09:44:50;;;;;;;;;;;;;;;;;;5061483;28;19924;-94
2022/02/20 09:47:16;;;;;;;;;;;;;;;;;;5059347;28;19929;-93
2022/02/20 09:49:42;;;;;;;;;;;;;;;;;;5059287;28;20380;-93
2022/02/20 09:52:08;;;;;;;;;;;;;;;;;;5058356;28;20489;-94
2022/02/20 09:54:35;;;;;;;;;;;;;;;;;;5060715;28;19921;-94
2022/02/20 09:57:02;;;;;;;;;;;;;;;;;;5061016;28;19924;-93
2022/02/20 09:59:28;;;;;;;;;;;;;;;;;;5062220;28;19920;-94
2022/02/20 10:01:54;;;;;;;;;;;;;;;;;;5061802;28;20320;-93
2022/02/20 10:04:20;;;;;;;;;;;;;;;;;;5061467;28;19983;-96
2022/02/20 10:06:47;;;;;;;;;;;;;;;;;;5060999;28;19928;-97
2022/02/20 10:09:13;;;;;;;;;;;;;;;;;;5060899;28;19947;-96
2022/02/20 10:11:41;;;;;;;;;;;;;;;;;;5063968;28;19947;-96
2022/02/20 10:14:07;;;;;;;;;;;;;;;;;;5063052;28;19925;-93
2022/02/20 10:16:33;;;;;;;;;;;;;;;;;;5060607;28;19960;-95
2022/02/20 10:18:59;;;;;;;;;;;;;;;;;;5077920;28;19924;-95
2022/02/20 10:21:25;;;;;;;;;;;;;;;;;;5066586;28;19924;-96
2022/02/20 10:24:04;;;;;;;;;;;;;;;;;;5058138;28;20601;-96
2022/02/20 10:26:33;;;;;;;;;;;;;;;;;;5063708;28;19931;-95
2022/02/20 10:28:59;;;;;;;;;;;;;;;;;;5127560;22;19924;-94
2022/02/20 10:31:25;;;;;;;;;;;;;;;;;;5057330;28;20028;-94
2022/02/20 10:33:51;;;;;;;;;;;;;;;;;;5059084;28;19978;-94
2022/02/20 10:36:18;;;;;;;;;;;;;;;;;;5058846;28;19928;-95
2022/02/20 10:38:44;;;;;;;;;;;;;;;;;;5053173;28;19971;-96
2022/02/20 10:41:10;;;;;;;;;;;;;;;;;;5057639;28;19924;-96
2022/02/20 10:43:37;;;;;;;;;;;;;;;;;;5056084;28;19933;-94
2022/02/20 10:46:04;;;;;;;;;;;;;;;;;;5058913;28;19921;-96
2022/02/20 10:48:30;;;;;;;;;;;;;;;;;;5058309;28;19920;-96
2022/02/20 10:50:56;;;;;;;;;;;;;;;;;;5059516;28;19943;-96
2022/02/20 10:53:23;;;;;;;;;;;;;;;;;;5059636;28;20446;-95
2022/02/20 10:55:49;;;;;;;;;;;;;;;;;;5060390;28;19921;-95
2022/02/20 10:58:15;;;;;;;;;;;;;;;;;;5059068;28;19966;-95
2022/02/20 11:00:41;;;;;;;;;;;;;;;;;;5058563;28;19920;-95
2022/02/20 11:03:08;;;;;;;;;;;;;;;;;;5056142;28;19925;-95
2022/02/20 11:05:34;;;;;;;;;;;;;;;;;;5060234;28;19955;-96
2022/02/20 11:08:01;;;;;;;;;;;;;;;;;;5060795;28;19998;-96
2022/02/20 11:10:27;;;;;;;;;;;;;;;;;;5059461;28;19982;-94
2022/02/20 11:12:53;;;;;;;;;;;;;;;;;;5059875;28;19924;-94
2022/02/20 11:15:20;;;;;;;;;;;;;;;;;;5060052;28;19935;-95
2022/02/20 11:17:46;;;;;;;;;;;;;;;;;;5060427;28;19964;-96
2022/02/20 11:20:13;;;;;;;;;;;;;;;;;;5060677;28;19964;-96
2022/02/20 11:22:39;;;;;;;;;;;;;;;;;;5060921;28;19936;-94
2022/02/20 11:25:05;;;;;;;;;;;;;;;;;;5062173;28;20494;-95
2022/02/20 11:27:31;;;;;;;;;;;;;;;;;;5062052;28;19929;-94
2022/02/20 11:29:58;;;;;;;;;;;;;;;;;;5060554;28;19925;-93
2022/02/20 11:32:24;;;;;;;;;;;;;;;;;;5061641;28;19994;-94
2022/02/20 11:34:50;;;;;;;;;;;;;;;;;;5060532;28;19924;-93
2022/02/20 11:37:17;;;;;;;;;;;;;;;;;;5058148;28;19921;-94
2022/02/20 11:39:43;;;;;;;;;;;;;;;;;;5058762;28;19943;-95
2022/02/20 11:42:09;;;;;;;;;;;;;;;;;;5060873;28;19921;-94
2022/02/20 11:44:35;;;;;;;;;;;;;;;;;;5059259;28;19927;-93
2022/02/20 11:47:01;;;;;;;;;;;;;;;;;;5058546;28;19925;-93
2022/02/20 11:49:28;;;;;;;;;;;;;;;;;;5059835;28;19933;-94
2022/02/20 11:51:54;;;;;;;;;;;;;;;;;;5058971;28;19947;-94
2022/02/20 11:54:20;;;;;;;;;;;;;;;;;;5059522;28;19925;-94
2022/02/20 11:56:46;;;;;;;;;;;;;;;;;;5060988;28;19947;-94
2022/02/20 11:59:13;;;;;;;;;;;;;;;;;;5059203;28;19920;-93
2022/02/20 12:01:39;;;;;;;;;;;;;;;;;;5057016;28;19947;-93
2022/02/20 12:04:09;;;;;;;;;;;;;;;;;;5058761;28;19933;-94
2022/02/20 12:06:35;;;;;;;;;;;;;;;;;;5060089;28;19991;-93
2022/02/20 12:09:01;;;;;;;;;;;;;;;;;;5059651;28;19971;-93
2022/02/20 12:11:27;;;;;;;;;;;;;;;;;;5057366;28;20365;-94
2022/02/20 12:13:54;;;;;;;;;;;;;;;;;;5060021;28;20521;-94
2022/02/20 12:16:20;;;;;;;;;;;;;;;;;;5064241;28;20422;-93
2022/02/20 12:18:46;;;;;;;;;;;;;;;;;;5061655;28;20324;-95
2022/02/20 12:21:12;;;;;;;;;;;;;;;;;;5061551;28;19967;-94
2022/02/20 12:23:39;;;;;;;;;;;;;;;;;;5061922;28;19928;-95
2022/02/20 12:26:05;;;;;;;;;;;;;;;;;;5063002;28;19939;-96
2022/02/20 12:28:31;;;;;;;;;;;;;;;;;;5063574;28;19982;-95
2022/02/20 12:30:57;;;;;;;;;;;;;;;;;;5065876;28;19960;-96
2022/02/20 12:33:24;;;;;;;;;;;;;;;;;;5067507;28;19924;-94
2022/02/20 12:35:50;;;;;;;;;;;;;;;;;;5063334;28;19955;-95
2022/02/20 12:38:16;;;;;;;;;;;;;;;;;;5064717;28;19924;-96
2022/02/20 12:40:44;;;;;;;;;;;;;;;;;;5061476;28;19929;-96
2022/02/20 12:43:13;;;;;;;;;;;;;;;;;;5061654;28;19930;-96
2022/02/20 12:45:40;;;;;;;;;;;;;;;;;;5060576;28;19951;-96
2022/02/20 12:48:07;;;;;;;;;;;;;;;;;;5061888;28;19990;-96
2022/02/20 12:50:34;;;;;;;;;;;;;;;;;;5062345;28;19927;-96
2022/02/20 12:53:00;;;;;;;;;;;;;;;;;;5062093;28;20396;-94
2022/02/20 12:55:26;;;;;;;;;;;;;;;;;;5062999;28;20377;-95
2022/02/20 12:57:52;;;;;;;;;;;;;;;;;;5064279;28;20336;-94
2022/02/20 13:00:18;;;;;;;;;;;;;;;;;;5064352;28;20363;-95
2022/02/20 13:02:45;;;;;;;;;;;;;;;;;;5062232;28;20326;-94
2022/02/20 13:05:11;;;;;;;;;;;;;;;;;;5063061;28;20384;-95
2022/02/20 13:07:37;;;;;;;;;;;;;;;;;;5061416;28;19974;-96
2022/02/20 13:10:04;;;;;;;;;;;;;;;;;;5063440;28;19924;-96
2022/02/20 13:12:31;;;;;;;;;;;;;;;;;;5063729;28;19925;-94
2022/02/20 13:14:57;;;;;;;;;;;;;;;;;;5063005;28;19925;-96
2022/02/20 13:17:23;;;;;;;;;;;;;;;;;;5061463;28;19924;-95
2022/02/20 13:19:49;;;;;;;;;;;;;;;;;;5061199;28;19946;-94
2022/02/20 13:22:18;;;;;;;;;;;;;;;;;;5060939;28;19924;-94
2022/02/20 13:24:44;;;;;;;;;;;;;;;;;;5060668;28;19921;-94
2022/02/20 13:27:10;;;;;;;;;;;;;;;;;;5062799;28;19921;-94
2022/02/20 13:29:37;;;;;;;;;;;;;;;;;;5062450;28;19984;-94
2022/02/20 13:32:03;;;;;;;;;;;;;;;;;;5062340;28;19951;-93
2022/02/20 13:34:29;;;;;;;;;;;;;;;;;;5063263;28;19921;-94
2022/02/20 13:36:55;;;;;;;;;;;;;;;;;;5062416;28;19943;-94
2022/02/20 13:39:22;;;;;;;;;;;;;;;;;;5062642;28;19925;-95
2022/02/20 13:41:50;;;;;;;;;;;;;;;;;;5061108;28;19947;-96
2022/02/20 13:44:17;;;;;;;;;;;;;;;;;;5062811;28;19988;-94
2022/02/20 13:46:43;;;;;;;;;;;;;;;;;;5058331;28;20331;-95
2022/02/20 13:49:09;;;;;;;;;;;;;;;;;;5056796;28;19944;-94
2022/02/20 13:51:35;;;;;;;;;;;;;;;;;;5061592;28;19925;-93
2022/02/20 13:54:03;;;;;;;;;;;;;;;;;;5063182;28;19924;-93
2022/02/20 13:56:29;;;;;;;;;;;;;;;;;;5061519;28;20339;-93
2022/02/20 13:58:55;;;;;;;;;;;;;;;;;;5061335;28;20339;-96
2022/02/20 14:01:21;;;;;;;;;;;;;;;;;;5062123;28;20338;-95
2022/02/20 14:03:48;;;;;;;;;;;;;;;;;;5060466;28;19960;-92
2022/02/20 14:06:14;;;;;;;;;;;;;;;;;;5062242;28;19920;-93
2022/02/20 14:08:40;;;;;;;;;;;;;;;;;;5062565;28;19956;-93
2022/02/20 14:11:06;;;;;;;;;;;;;;;;;;5062478;28;19924;-94
2022/02/20 14:13:33;;;;;;;;;;;;;;;;;;5061576;28;20002;-95
2022/02/20 14:15:59;;;;;;;;;;;;;;;;;;5064028;28;20015;-93
2022/02/20 14:18:25;;;;;;;;;;;;;;;;;;5061599;28;19967;-93
2022/02/20 14:20:53;;;;;;;;;;;;;;;;;;5059029;28;19925;-93
2022/02/20 14:23:19;;;;;;;;;;;;;;;;;;5061112;28;19971;-92
2022/02/20 14:25:45;;;;;;;;;;;;;;;;;;5062266;28;19980;-92
2022/02/20 14:28:12;;;;;;;;;;;;;;;;;;5059750;28;19921;-93
2022/02/20 14:30:39;;;;;;;;;;;;;;;;;;5059798;28;20351;-94
2022/02/20 14:33:05;;;;;;;;;;;;;;;;;;5058574;28;20619;-92
2022/02/20 14:35:31;;;;;;;;;;;;;;;;;;5060722;28;20388;-92
2022/02/20 14:37:58;;;;;;;;;;;;;;;;;;5059628;28;20384;-92
2022/02/20 14:40:24;;;;;;;;;;;;;;;;;;5060351;28;20370;-93
2022/02/20 14:42:50;;;;;;;;;;;;;;;;;;5060579;28;20735;-92
2022/02/20 14:45:16;;;;;;;;;;;;;;;;;;5060473;28;19928;-91
2022/02/20 14:47:43;;;;;;;;;;;;;;;;;;5060396;28;19979;-92
2022/02/20 14:50:09;;;;;;;;;;;;;;;;;;5060722;28;20339;-92
2022/02/20 14:52:35;;;;;;;;;;;;;;;;;;5059939;28;19967;-92
2022/02/20 14:55:01;;;;;;;;;;;;;;;;;;5059640;28;19924;-91
2022/02/20 14:57:28;;;;;;;;;;;;;;;;;;5058881;28;19924;-92
2022/02/20 14:59:54;;;;;;;;;;;;;;;;;;5060544;28;19971;-90
2022/02/20 15:02:20;;;;;;;;;;;;;;;;;;5056366;28;19931;-90
2022/02/20 15:04:47;;;;;;;;;;;;;;;;;;5059288;28;20704;-92
2022/02/20 15:07:13;;;;;;;;;;;;;;;;;;5057943;28;20547;-91
2022/02/20 15:09:39;;;;;;;;;;;;;;;;;;5060544;28;19952;-91
2022/02/20 15:12:05;;;;;;;;;;;;;;;;;;5060838;28;19921;-91
2022/02/20 15:14:32;;;;;;;;;;;;;;;;;;5059815;28;20665;-92
2022/02/20 15:16:58;;;;;;;;;;;;;;;;;;5058267;28;19921;-91
2022/02/20 15:19:24;;;;;;;;;;;;;;;;;;5057956;28;20368;-91
2022/02/20 15:21:50;;;;;;;;;;;;;;;;;;5048822;28;20285;-90
2022/02/20 15:24:17;;;;;;;;;;;;;;;;;;5049230;28;19927;-92
2022/02/20 15:26:44;;;;;;;;;;;;;;;;;;5060974;28;19928;-92
2022/02/20 15:29:11;;;;;;;;;;;;;;;;;;5061107;28;19921;-91
2022/02/20 15:31:37;;;;;;;;;;;;;;;;;;5060411;28;19921;-91
2022/02/20 15:34:03;;;;;;;;;;;;;;;;;;5060790;28;19951;-91
2022/02/20 15:36:29;;;;;;;;;;;;;;;;;;5059658;28;19943;-90
2022/02/20 15:38:57;;;;;;;;;;;;;;;;;;5053559;28;19921;-92
2022/02/20 15:41:25;;;;;;;;;;;;;;;;;;5037634;28;19993;-91
2022/02/20 15:43:51;;;;;;;;;;;;;;;;;;5042647;28;19947;-92
2022/02/20 15:46:18;;;;;;;;;;;;;;;;;;5057963;28;19924;-91
2022/02/20 15:48:47;;;;;;;;;;;;;;;;;;5060555;28;19955;-92
2022/02/20 15:51:13;;;;;;;;;;;;;;;;;;5064035;28;19920;-91
2022/02/20 15:53:41;;;;;;;;;;;;;;;;;;5063726;28;19925;-92
2022/02/20 15:56:07;;;;;;;;;;;;;;;;;;5065449;28;19925;-91
2022/02/20 15:58:33;;;;;;;;;;;;;;;;;;5064933;28;19947;-92
2022/02/20 16:01:00;;;;;;;;;;;;;;;;;;5064621;28;19924;-91
2022/02/20 16:03:26;;;;;;;;;;;;;;;;;;5064173;28;19951;-91
2022/02/20 16:05:52;;;;;;;;;;;;;;;;;;5064530;28;19920;-91
2022/02/20 16:08:18;;;;;;;;;;;;;;;;;;5063732;28;20497;-92
2022/02/20 16:10:48;;;;;;;;;;;;;;;;;;5062508;28;20878;-90
2022/02/20 16:13:14;;;;;;;;;;;;;;;;;;5050600;28;19944;-91
2022/02/20 16:15:40;;;;;;;;;;;;;;;;;;5060341;28;19942;-96
2022/02/20 16:18:07;;;;;;;;;;;;;;;;;;5063081;28;19920;-90
2022/02/20 16:20:33;;;;;;;;;;;;;;;;;;5062059;28;19947;-91
2022/02/20 16:22:59;;;;;;;;;;;;;;;;;;5061103;28;19924;-91
2022/02/20 16:25:25;;;;;;;;;;;;;;;;;;5063616;28;19925;-91
2022/02/20 16:27:52;;;;;;;;;;;;;;;;;;5064448;28;19947;-95
2022/02/20 16:30:18;;;;;;;;;;;;;;;;;;5061374;28;19982;-91
2022/02/20 16:32:45;;;;;;;;;;;;;;;;;;5061520;28;19977;-92
2022/02/20 16:35:11;;;;;;;;;;;;;;;;;;5062506;28;19925;-91
2022/02/20 16:37:37;;;;;;;;;;;;;;;;;;5062125;28;20046;-91
2022/02/20 16:40:04;;;;;;;;;;;;;;;;;;5061798;28;19970;-92